Time;durP1;ratioP1;P1;durP2;ratioP2;P2;SDS_P1;SDS_P2;PMS_P1;PMS_P2;Temp;Humidity;BMP_temperature;BMP_pressure;BME280_temperature;BME280_humidity;BME280_pressure;Samples;Min_cycle;Max_cycle;Signal;HPM_P1;HPM_P2
2023/08/28 00:01:09;;;;;;;;;1.00;1.00;;;;;15.13;76.31;101099.31;5001857;28;9326;-66
2023/08/28 00:03:35;;;;;;;;;2.67;2.00;;;;;15.08;76.42;101092.69;5001472;28;9067;-67
2023/08/28 00:06:02;;;;;;;;;3.00;3.00;;;;;15.07;76.26;101092.91;4997982;28;9244;-67
2023/08/28 00:08:28;;;;;;;;;2.00;2.00;;;;;15.07;76.44;101090.19;5020814;28;9058;-67
2023/08/28 00:10:55;;;;;;;;;2.00;2.00;;;;;15.11;76.68;101090.56;5023050;28;9251;-66
2023/08/28 00:13:21;;;;;;;;;3.00;3.00;;;;;15.09;76.84;101085.38;5002637;28;9136;-67
2023/08/28 00:15:48;;;;;;;;;2.00;2.00;;;;;15.07;76.19;101096.44;5010212;28;9084;-67
2023/08/28 00:18:14;;;;;;;;;3.00;3.00;;;;;15.06;76.59;101096.66;5009441;28;9185;-66
2023/08/28 00:20:41;;;;;;;;;1.00;1.00;;;;;15.01;76.36;101088.34;5001668;28;9234;-66
2023/08/28 00:23:07;;;;;;;;;3.00;2.67;;;;;15.00;76.65;101097.53;5006027;28;9254;-66
2023/08/28 00:25:34;;;;;;;;;2.00;2.00;;;;;14.99;76.88;101093.13;5003196;28;9251;-67
2023/08/28 00:28:00;;;;;;;;;1.33;1.33;;;;;14.97;76.79;101093.38;5003045;28;9219;-66
2023/08/28 00:30:27;;;;;;;;;2.33;2.33;;;;;14.97;76.48;101090.66;4993579;28;9268;-67
2023/08/28 00:32:54;;;;;;;;;3.67;2.67;;;;;14.94;76.86;101093.78;5009233;28;9260;-67
2023/08/28 00:35:21;;;;;;;;;1.33;1.33;;;;;14.97;76.74;101098.78;5001812;28;9358;-66
2023/08/28 00:37:48;;;;;;;;;0.00;0.00;;;;;14.96;76.93;101094.41;5005002;28;8999;-67
2023/08/28 00:40:16;;;;;;;;;2.00;2.00;;;;;14.98;77.04;101083.34;5000229;28;9299;-66
2023/08/28 00:42:42;;;;;;;;;3.00;3.00;;;;;14.98;77.03;101088.78;4997981;28;9276;-66
2023/08/28 00:45:11;;;;;;;;;2.00;2.00;;;;;14.95;76.81;101084.63;4999903;28;9240;-67
2023/08/28 00:47:38;;;;;;;;;2.00;2.00;;;;;14.93;76.66;101088.59;4994987;28;9873;-67
2023/08/28 00:50:05;;;;;;;;;4.00;3.00;;;;;14.90;76.74;101094.44;4997771;28;9237;-68
2023/08/28 00:52:32;;;;;;;;;2.00;2.00;;;;;14.88;76.96;101091.13;4998720;28;9986;-66
2023/08/28 00:55:00;;;;;;;;;2.33;1.33;;;;;14.86;76.98;101094.03;5001554;28;9297;-66
2023/08/28 00:57:28;;;;;;;;;3.00;3.00;;;;;14.84;77.29;101107.00;5008525;28;9279;-66
2023/08/28 00:59:55;;;;;;;;;2.00;2.00;;;;;14.81;77.08;101100.13;5006577;28;9371;-67
2023/08/28 01:02:22;;;;;;;;;4.00;3.00;;;;;14.81;77.44;101108.25;4991477;28;9271;-66
2023/08/28 01:04:51;;;;;;;;;2.00;2.00;;;;;14.79;77.11;101104.94;4993634;28;9137;-68
2023/08/28 01:07:22;;;;;;;;;2.33;2.00;;;;;14.79;77.15;101095.97;5000608;28;9186;-66
2023/08/28 01:10:07;;;;;;;;;2.00;2.00;;;;;14.78;77.54;101107.84;5017747;28;9075;-66
2023/08/28 01:12:53;;;;;;;;;2.67;2.67;;;;;14.76;77.56;101110.78;5006439;28;9177;-68
2023/08/28 01:15:22;;;;;;;;;1.67;1.67;;;;;14.75;77.89;101109.13;5002049;28;9177;-67
2023/08/28 01:17:56;;;;;;;;;1.67;1.67;;;;;14.81;77.88;101115.53;4990007;28;9303;-67
2023/08/28 01:20:24;;;;;;;;;2.00;2.00;;;;;14.84;77.77;101112.41;4993909;28;9103;-68
2023/08/28 01:23:06;;;;;;;;;1.00;1.00;;;;;14.86;77.60;101109.47;4999805;28;9217;-68
2023/08/28 01:25:33;;;;;;;;;2.00;1.67;;;;;14.86;77.74;101107.59;5006260;28;9429;-66
2023/08/28 01:28:00;;;;;;;;;1.33;1.33;;;;;14.86;77.94;101114.91;4995925;28;9050;-68
2023/08/28 01:30:27;;;;;;;;;1.00;1.00;;;;;14.85;77.48;101114.06;5000756;28;9003;-66
2023/08/28 01:32:54;;;;;;;;;2.00;1.67;;;;;14.82;77.66;101107.19;5004319;28;9179;-67
2023/08/28 01:35:29;;;;;;;;;1.00;1.00;;;;;14.83;77.65;101105.34;5011215;28;9102;-67
2023/08/28 01:38:11;;;;;;;;;4.33;3.00;;;;;14.83;77.89;101100.75;5010561;28;9133;-66
2023/08/28 01:40:44;;;;;;;;;2.00;2.00;;;;;14.82;77.57;101098.22;4998362;28;9073;-67
2023/08/28 01:43:20;;;;;;;;;2.00;2.00;;;;;14.78;77.45;101100.53;5012664;28;9214;-67
2023/08/28 01:45:47;;;;;;;;;2.00;2.00;;;;;14.74;77.60;101107.44;5017745;28;9366;-66
2023/08/28 01:48:14;;;;;;;;;3.00;2.67;;;;;14.74;77.77;101110.16;5022702;28;9398;-68
2023/08/28 01:50:40;;;;;;;;;1.67;1.67;;;;;14.72;78.19;101098.72;4994641;28;9262;-67
2023/08/28 01:53:07;;;;;;;;;2.00;2.00;;;;;14.71;78.31;101105.19;4997885;28;9329;-67
2023/08/28 01:55:46;;;;;;;;;2.00;2.00;;;;;14.73;78.03;101097.66;4999234;28;9252;-67
2023/08/28 01:58:15;;;;;;;;;4.00;3.00;;;;;14.75;78.31;101094.75;5001679;28;9243;-67
2023/08/28 02:00:41;;;;;;;;;2.00;2.00;;;;;14.74;77.91;101102.00;5008060;28;9364;-67
2023/08/28 02:03:09;;;;;;;;;3.00;3.00;;;;;14.73;78.01;101102.25;5005204;28;9241;-67
2023/08/28 02:05:36;;;;;;;;;5.00;3.00;;;;;14.73;78.18;101104.94;5000080;28;9380;-66
2023/08/28 02:08:04;;;;;;;;;3.67;3.33;;;;;14.72;77.98;101109.53;4994934;28;9306;-67
2023/08/28 02:10:31;;;;;;;;;3.00;2.00;;;;;14.73;78.12;101104.94;5001445;28;9178;-66
2023/08/28 02:12:58;;;;;;;;;3.00;3.00;;;;;14.71;78.73;101102.47;4996023;28;9177;-65
2023/08/28 02:15:24;;;;;;;;;3.00;2.00;;;;;14.71;78.40;101104.34;4989689;28;9908;-66
2023/08/28 02:17:50;;;;;;;;;2.00;2.00;;;;;14.70;78.08;101100.78;4994979;28;9336;-67
2023/08/28 02:20:17;;;;;;;;;5.00;5.00;;;;;14.69;78.11;101099.13;5011806;28;9393;-66
2023/08/28 02:22:43;;;;;;;;;5.33;3.67;;;;;14.70;78.08;101094.53;5007501;28;10155;-66
2023/08/28 02:25:10;;;;;;;;;2.00;2.00;;;;;14.69;78.60;101092.88;4993089;28;9336;-67
2023/08/28 02:27:36;;;;;;;;;2.00;2.00;;;;;14.69;78.09;101093.72;4993053;28;9392;-66
2023/08/28 02:30:05;;;;;;;;;4.33;4.33;;;;;14.67;78.20;101090.41;4992804;28;9379;-66
2023/08/28 02:32:31;;;;;;;;;3.00;3.00;;;;;14.66;78.12;101096.84;5006548;28;9237;-67
2023/08/28 02:34:58;;;;;;;;;3.00;3.00;;;;;14.65;78.16;101094.34;5005131;28;9329;-67
2023/08/28 02:37:25;;;;;;;;;3.00;3.00;;;;;14.65;78.26;101094.34;5003952;28;9248;-66
2023/08/28 02:39:51;;;;;;;;;7.00;5.67;;;;;14.64;78.52;101095.41;5005514;28;9327;-67
2023/08/28 02:42:18;;;;;;;;;4.00;3.00;;;;;14.63;78.29;101089.16;4996060;28;9502;-66
2023/08/28 02:44:44;;;;;;;;;7.33;4.67;;;;;14.63;78.46;101089.16;5012463;28;9286;-66
2023/08/28 02:47:11;;;;;;;;;4.67;4.67;;;;;14.63;78.45;101080.22;4992208;28;9255;-65
2023/08/28 02:49:37;;;;;;;;;7.00;3.00;;;;;14.62;78.72;101092.91;5002122;28;9322;-66
2023/08/28 02:52:04;;;;;;;;;5.67;5.67;;;;;14.63;78.60;101088.34;4998826;28;9270;-67
2023/08/28 02:54:31;;;;;;;;;7.00;6.50;;;;;14.63;78.78;101083.75;5018341;28;9317;-66
2023/08/28 02:56:57;;;;;;;;;5.00;4.50;;;;;14.63;78.79;101083.75;5028556;28;9382;-67
2023/08/28 02:59:24;;;;;;;;;5.00;5.00;;;;;14.63;78.84;101072.09;5009384;28;9544;-66
2023/08/28 03:01:50;;;;;;;;;7.00;6.00;;;;;14.62;78.72;101073.94;5026413;28;9544;-67
2023/08/28 03:04:17;;;;;;;;;5.00;5.00;;;;;14.63;79.11;101066.66;5004023;28;9566;-65
2023/08/28 03:06:43;;;;;;;;;4.50;4.50;;;;;14.63;78.74;101069.38;5003542;28;10238;-66
2023/08/28 03:09:10;;;;;;;;;7.00;7.00;;;;;14.62;78.77;101062.28;5013164;28;10260;-67
2023/08/28 03:11:37;;;;;;;;;4.50;4.00;;;;;14.60;79.00;101059.78;5013107;28;10171;-66
2023/08/28 03:14:03;;;;;;;;;9.50;8.00;;;;;14.59;79.06;101055.41;5003860;28;9576;-66
2023/08/28 03:16:30;;;;;;;;;6.25;6.25;;;;;14.56;78.85;101059.38;5017327;28;9552;-67
2023/08/28 03:18:57;;;;;;;;;6.00;6.00;;;;;14.53;79.10;101053.56;5015551;28;9604;-67
2023/08/28 03:21:24;;;;;;;;;6.25;6.00;;;;;14.51;78.95;101048.38;5008308;28;9417;-66
2023/08/28 03:23:51;;;;;;;;;7.75;6.75;;;;;14.48;78.82;101047.94;5012867;28;9461;-67
2023/08/28 03:26:18;;;;;;;;;6.67;6.67;;;;;14.44;79.18;101052.94;5012139;28;9366;-66
2023/08/28 03:28:44;;;;;;;;;7.50;6.50;;;;;14.41;79.10;101047.94;5004310;28;9421;-67
2023/08/28 03:31:11;;;;;;;;;7.75;7.00;;;;;14.40;79.18;101050.88;4995029;28;9392;-66
2023/08/28 03:33:38;;;;;;;;;7.50;7.00;;;;;14.39;79.18;101060.06;5008269;28;9707;-66
2023/08/28 03:36:07;;;;;;;;;7.75;6.50;;;;;14.40;79.22;101067.97;5004621;28;9616;-67
2023/08/28 03:38:33;;;;;;;;;7.75;7.00;;;;;14.37;79.12;101067.56;5011420;28;9548;-66
2023/08/28 03:41:04;;;;;;;;;6.25;6.25;;;;;14.34;79.40;101075.06;5010837;28;9657;-66
2023/08/28 03:43:30;;;;;;;;;9.75;8.00;;;;;14.31;79.29;101078.19;5011098;28;9539;-65
2023/08/28 03:45:57;;;;;;;;;6.75;6.75;;;;;14.31;79.50;101085.50;5011527;28;9645;-67
2023/08/28 03:48:23;;;;;;;;;7.75;6.75;;;;;14.29;79.32;101093.81;5011300;28;9740;-67
2023/08/28 03:50:50;;;;;;;;;8.75;7.50;;;;;14.28;79.34;101099.44;5010931;28;9694;-65
2023/08/28 03:53:18;;;;;;;;;7.00;7.00;;;;;14.27;79.45;101114.03;5007003;28;9545;-66
2023/08/28 03:55:44;;;;;;;;;6.50;6.50;;;;;14.26;79.32;101115.94;5015528;28;10033;-65
2023/08/28 03:58:11;;;;;;;;;5.00;5.00;;;;;14.26;79.27;101112.34;5003091;28;9781;-65
2023/08/28 04:00:39;;;;;;;;;6.00;4.75;;;;;14.24;79.11;101107.16;5000309;28;10184;-66
2023/08/28 04:03:08;;;;;;;;;6.00;6.00;;;;;14.22;79.17;101103.00;4997873;28;9483;-66
2023/08/28 04:05:37;;;;;;;;;7.00;4.75;;;;;14.19;79.11;101108.84;4994487;28;9509;-66
2023/08/28 04:08:05;;;;;;;;;3.75;3.00;;;;;14.16;79.16;101115.50;5010792;28;9544;-66
2023/08/28 04:10:31;;;;;;;;;7.00;6.00;;;;;14.12;79.40;101122.38;5010662;28;9536;-66
2023/08/28 04:12:58;;;;;;;;;4.67;4.67;;;;;14.13;79.52;101136.75;5011014;28;9466;-67
2023/08/28 04:15:24;;;;;;;;;4.00;4.00;;;;;14.11;79.45;101134.28;5010656;28;9320;-65
2023/08/28 04:17:51;;;;;;;;;5.00;5.00;;;;;14.12;79.57;101144.06;5005107;28;9448;-66
2023/08/28 04:20:18;;;;;;;;;5.67;4.00;;;;;14.11;79.15;101136.97;5006555;28;9608;-65
2023/08/28 04:22:45;;;;;;;;;3.33;3.33;;;;;14.11;79.43;101136.97;5010507;28;9467;-66
2023/08/28 04:25:12;;;;;;;;;6.75;6.75;;;;;14.09;79.27;101144.47;5010650;28;9337;-66
2023/08/28 04:27:40;;;;;;;;;7.00;6.25;;;;;14.08;79.37;101143.63;5010559;28;9598;-66
2023/08/28 04:30:08;;;;;;;;;5.50;5.00;;;;;14.09;79.45;101156.13;5009725;28;9561;-66
2023/08/28 04:32:35;;;;;;;;;3.00;3.00;;;;;14.12;79.73;101160.28;4986694;28;9624;-66
2023/08/28 04:35:02;;;;;;;;;6.00;6.00;;;;;14.15;79.94;101164.47;4998129;28;9395;-66
2023/08/28 04:37:30;;;;;;;;;7.50;6.50;;;;;14.18;79.92;101170.28;5000172;28;9394;-66
2023/08/28 04:39:56;;;;;;;;;7.25;7.00;;;;;14.18;79.68;101173.00;5009331;28;9532;-67
2023/08/28 04:42:23;;;;;;;;;8.25;7.00;;;;;14.20;79.95;101175.50;5043487;22;9612;-68
2023/08/28 04:44:50;;;;;;;;;9.50;7.00;;;;;14.21;79.79;101171.72;5023344;28;9603;-68
2023/08/28 04:47:16;;;;;;;;;7.00;7.00;;;;;14.20;79.86;101172.78;5029593;28;10441;-68
2023/08/28 04:49:43;;;;;;;;;5.00;5.00;;;;;14.19;79.92;101181.97;5011456;28;9611;-68
2023/08/28 04:52:09;;;;;;;;;6.50;6.50;;;;;14.19;79.58;101181.97;5013045;28;9710;-68
2023/08/28 04:54:36;;;;;;;;;6.75;6.25;;;;;14.17;79.87;101181.31;5012774;28;9607;-68
2023/08/28 04:57:03;;;;;;;;;6.25;6.25;;;;;14.16;79.88;101182.38;5011622;28;9685;-67
2023/08/28 04:59:29;;;;;;;;;5.00;5.00;;;;;14.15;80.07;101183.41;5009711;28;9615;-67
2023/08/28 05:01:56;;;;;;;;;8.00;8.00;;;;;14.14;80.13;101189.84;5009142;28;9515;-67
2023/08/28 05:04:22;;;;;;;;;12.00;11.00;;;;;14.13;80.15;101197.16;5005756;28;9685;-67
2023/08/28 05:06:49;;;;;;;;;8.25;8.25;;;;;14.13;80.14;101197.16;5004319;28;9894;-67
2023/08/28 05:09:16;;;;;;;;;7.00;7.00;;;;;14.14;80.23;101193.41;5013917;28;9692;-67
2023/08/28 05:11:42;;;;;;;;;6.25;5.50;;;;;14.16;80.37;101188.63;5009375;28;9467;-67
2023/08/28 05:14:09;;;;;;;;;6.00;5.50;;;;;14.18;80.46;101181.13;5009528;28;9649;-67
2023/08/28 05:16:35;;;;;;;;;6.75;6.75;;;;;14.19;80.11;101180.06;5022348;28;9612;-69
2023/08/28 05:19:02;;;;;;;;;7.75;7.50;;;;;14.21;80.20;101182.56;5025412;28;9546;-67
2023/08/28 05:21:28;;;;;;;;;9.00;6.00;;;;;14.21;80.51;101194.22;5008980;28;9593;-67
2023/08/28 05:23:55;;;;;;;;;8.25;6.25;;;;;14.22;80.35;101182.38;5022665;28;9619;-67
2023/08/28 05:26:21;;;;;;;;;9.00;7.00;;;;;14.23;80.74;101177.78;5001092;28;9725;-68
2023/08/28 05:28:51;;;;;;;;;8.75;7.75;;;;;14.23;80.51;101175.06;5018872;28;9587;-67
2023/08/28 05:31:18;;;;;;;;;8.00;7.00;;;;;14.25;80.68;101183.81;5009056;28;9689;-67
2023/08/28 05:33:46;;;;;;;;;9.00;8.75;;;;;14.24;80.78;101174.84;5025873;28;9671;-68
2023/08/28 05:36:13;;;;;;;;;5.75;5.75;;;;;14.25;80.83;101184.63;5025868;28;9719;-67
2023/08/28 05:38:39;;;;;;;;;6.50;6.50;;;;;14.25;80.64;101184.63;5003485;28;10232;-66
2023/08/28 05:41:06;;;;;;;;;8.00;7.25;;;;;14.26;80.96;101178.19;5008942;28;9647;-68
2023/08/28 05:43:32;;;;;;;;;8.00;8.00;;;;;14.27;80.72;101187.16;4992630;28;9450;-68
2023/08/28 05:45:59;;;;;;;;;5.00;5.00;;;;;14.29;80.86;101191.28;4987793;28;9719;-67
2023/08/28 05:48:26;;;;;;;;;6.00;6.00;;;;;14.33;80.71;101191.72;5003948;28;9418;-69
2023/08/28 05:50:53;;;;;;;;;6.75;3.00;;;;;14.35;80.87;101182.34;5006797;28;9382;-67
2023/08/28 05:53:20;;;;;;;;;5.00;5.00;;;;;14.40;80.81;101180.88;5019739;28;9463;-68
2023/08/28 05:55:47;;;;;;;;;6.50;5.00;;;;;14.43;80.73;101183.19;5018156;28;10211;-68
2023/08/28 05:58:14;;;;;;;;;5.50;5.50;;;;;14.45;80.93;101184.59;5013056;28;9562;-68
2023/08/28 06:00:42;;;;;;;;;5.75;5.25;;;;;14.49;80.86;101185.06;5015570;28;9548;-67
2023/08/28 06:03:09;;;;;;;;;7.00;6.75;;;;;14.50;81.05;101176.72;5026140;28;9639;-68
2023/08/28 06:05:35;;;;;;;;;5.75;4.75;;;;;14.52;80.99;101177.34;5014145;28;9603;-67
2023/08/28 06:08:02;;;;;;;;;5.00;5.00;;;;;14.56;80.80;101175.03;5000044;28;10284;-68
2023/08/28 06:10:29;;;;;;;;;7.00;7.00;;;;;14.60;81.23;101170.88;5001297;28;9550;-67
2023/08/28 06:12:57;;;;;;;;;6.00;6.00;;;;;14.64;80.97;101176.69;5015307;28;9545;-67
2023/08/28 06:15:25;;;;;;;;;4.33;4.00;;;;;14.67;81.02;101178.97;5010439;28;9461;-68
2023/08/28 06:17:51;;;;;;;;;4.67;4.67;;;;;14.71;81.22;101181.06;5005242;28;9500;-68
2023/08/28 06:20:18;;;;;;;;;2.67;2.00;;;;;14.75;81.28;101179.56;4997008;28;9328;-67
2023/08/28 06:22:44;;;;;;;;;2.75;2.75;;;;;14.82;81.26;101177.66;5021961;28;9408;-68
2023/08/28 06:25:11;;;;;;;;;3.33;3.33;;;;;14.87;81.19;101176.19;5006518;28;9467;-68
2023/08/28 06:27:38;;;;;;;;;2.00;2.00;;;;;14.91;80.68;101180.13;5015271;28;9385;-68
2023/08/28 06:30:06;;;;;;;;;2.00;2.00;;;;;14.94;80.62;101177.00;5031642;28;9162;-68
2023/08/28 06:32:33;;;;;;;;;4.00;4.00;;;;;14.98;80.60;101172.81;5031711;28;9170;-68
2023/08/28 06:35:00;;;;;;;;;3.00;3.00;;;;;15.01;80.49;101172.38;5016438;28;9240;-67
2023/08/28 06:37:27;;;;;;;;;2.33;2.33;;;;;15.04;80.41;101171.97;5016291;28;9316;-67
2023/08/28 06:39:53;;;;;;;;;2.00;2.00;;;;;15.06;80.54;101167.97;5016383;28;9161;-66
2023/08/28 06:42:20;;;;;;;;;3.00;2.67;;;;;15.11;80.64;101172.78;5014996;28;9308;-69
2023/08/28 06:44:50;;;;;;;;;4.00;3.00;;;;;15.16;80.45;101169.41;5016415;28;9071;-66
2023/08/28 06:47:16;;;;;;;;;4.00;4.00;;;;;15.18;80.57;101175.44;5031849;28;9078;-67
2023/08/28 06:49:43;;;;;;;;;2.00;2.00;;;;;15.22;80.51;101182.09;5031420;28;9236;-67
2023/08/28 06:52:10;;;;;;;;;3.00;3.00;;;;;15.26;80.62;101181.44;5016471;28;9169;-66
2023/08/28 06:54:36;;;;;;;;;3.00;2.00;;;;;15.29;80.67;101186.41;5016349;28;9788;-66
2023/08/28 06:57:17;;;;;;;;;3.00;3.00;;;;;15.33;80.59;101193.06;5016281;28;9140;-67
2023/08/28 06:59:44;;;;;;;;;4.00;4.00;;;;;15.35;80.51;101187.41;5016230;28;9171;-67
2023/08/28 07:02:11;;;;;;;;;4.00;3.00;;;;;15.40;80.61;101190.34;5011389;28;9255;-67
2023/08/28 07:04:37;;;;;;;;;5.33;3.00;;;;;15.40;80.88;101194.94;5012677;28;9025;-67
2023/08/28 07:07:04;;;;;;;;;4.00;4.00;;;;;15.47;80.92;101201.13;5013314;28;9182;-67
2023/08/28 07:09:30;;;;;;;;;3.00;2.67;;;;;15.51;80.50;101199.66;5012018;28;9266;-66
2023/08/28 07:11:57;;;;;;;;;3.00;3.00;;;;;15.54;80.46;101197.34;4995637;28;9070;-67
2023/08/28 07:14:24;;;;;;;;;1.75;1.75;;;;;15.61;80.00;101201.91;5012091;28;9108;-67
2023/08/28 07:16:50;;;;;;;;;4.00;3.00;;;;;15.65;80.34;101211.31;5007448;28;8843;-67
2023/08/28 07:19:17;;;;;;;;;3.00;3.00;;;;;15.65;80.40;101214.00;4997055;28;9085;-67
2023/08/28 07:21:43;;;;;;;;;3.00;3.00;;;;;15.67;80.13;101217.31;4996406;28;8993;-67
2023/08/28 07:24:10;;;;;;;;;2.00;2.00;;;;;15.71;79.74;101210.41;5027798;28;9027;-67
2023/08/28 07:26:36;;;;;;;;;2.00;1.67;;;;;15.75;79.48;101211.63;5027908;28;9170;-67
2023/08/28 07:29:03;;;;;;;;;2.00;2.00;;;;;15.78;79.70;101206.59;5011397;28;9476;-66
2023/08/28 07:31:29;;;;;;;;;2.00;2.00;;;;;15.81;79.46;101208.06;5011608;28;8902;-66
2023/08/28 07:33:59;;;;;;;;;2.00;2.00;;;;;15.82;79.42;101209.72;5012628;28;8997;-67
2023/08/28 07:36:25;;;;;;;;;3.00;2.25;;;;;15.89;79.08;101212.38;5004270;28;8852;-68
2023/08/28 07:38:52;;;;;;;;;1.00;1.00;;;;;15.95;78.86;101211.50;5007725;28;8860;-68
2023/08/28 07:41:19;;;;;;;;;1.00;1.00;;;;;16.02;79.00;101212.28;5008070;28;8835;-67
2023/08/28 07:43:47;;;;;;;;;2.00;2.00;;;;;16.06;79.01;101203.47;5012591;28;8946;-67
2023/08/28 07:46:13;;;;;;;;;2.00;2.00;;;;;16.14;78.38;101215.13;5012596;28;8984;-68
2023/08/28 07:48:40;;;;;;;;;1.25;1.25;;;;;16.17;77.82;101207.34;5027664;28;9623;-67
2023/08/28 07:51:09;;;;;;;;;1.00;1.00;;;;;16.19;77.77;101212.56;5010764;28;8839;-68
2023/08/28 07:53:36;;;;;;;;;1.50;1.50;;;;;16.18;77.31;101200.84;5012360;28;8863;-68
2023/08/28 07:56:03;;;;;;;;;0.00;0.00;;;;;16.18;77.26;101202.75;5012366;28;8835;-67
2023/08/28 07:58:30;;;;;;;;;2.25;1.00;;;;;16.19;77.29;101207.94;5011962;28;8831;-68
2023/08/28 08:00:56;;;;;;;;;0.00;0.00;;;;;16.22;76.93;101207.50;5012082;28;8984;-68
2023/08/28 08:03:23;;;;;;;;;0.00;0.00;;;;;16.25;76.87;101211.69;5012010;28;8854;-67
2023/08/28 08:05:52;;;;;;;;;0.00;0.00;;;;;16.26;76.36;101207.91;5011907;28;9286;-67
2023/08/28 08:08:18;;;;;;;;;0.00;0.00;;;;;16.24;76.33;101216.25;5011896;28;8871;-67
2023/08/28 08:10:45;;;;;;;;;0.00;0.00;;;;;16.23;75.89;101216.50;4994250;28;8905;-68
2023/08/28 08:13:11;;;;;;;;;0.00;0.00;;;;;16.23;75.75;101217.31;5005428;28;9565;-67
2023/08/28 08:15:38;;;;;;;;;0.75;0.75;;;;;16.27;75.37;101213.09;5024728;28;8815;-67
2023/08/28 08:18:04;;;;;;;;;0.00;0.00;;;;;16.31;74.87;101217.03;5011822;28;9534;-67
2023/08/28 08:20:31;;;;;;;;;0.00;0.00;;;;;16.38;74.60;101216.97;5002079;28;8853;-68
2023/08/28 08:23:00;;;;;;;;;1.00;1.00;;;;;16.47;74.95;101212.09;5004809;28;8880;-67
2023/08/28 08:25:27;;;;;;;;;0.00;0.00;;;;;16.53;74.29;101206.59;5002015;28;8846;-66
2023/08/28 08:27:54;;;;;;;;;0.00;0.00;;;;;16.59;73.43;101207.56;5011758;28;8839;-66
2023/08/28 08:30:20;;;;;;;;;0.00;0.00;;;;;16.61;72.75;101224.50;5011400;28;9647;-66
2023/08/28 08:32:47;;;;;;;;;0.25;0.25;;;;;16.58;70.84;101224.13;5011675;28;8931;-67
2023/08/28 08:35:13;;;;;;;;;0.00;0.00;;;;;16.54;70.65;101216.41;5026794;28;9617;-67
2023/08/28 08:37:41;;;;;;;;;0.00;0.00;;;;;16.54;70.45;101221.84;5010267;28;8965;-66
2023/08/28 08:40:13;;;;;;;;;0.50;0.00;;;;;16.58;70.31;101224.94;5011129;28;8827;-67
2023/08/28 08:42:40;;;;;;;;;1.00;1.00;;;;;16.65;70.36;101220.28;5011727;28;8807;-67
2023/08/28 08:45:08;;;;;;;;;0.00;0.00;;;;;16.73;70.45;101217.28;5011339;28;8839;-68
2023/08/28 08:47:35;;;;;;;;;1.00;1.00;;;;;16.78;69.86;101224.75;5011247;28;8843;-68
2023/08/28 08:50:06;;;;;;;;;0.00;0.00;;;;;16.84;69.28;101218.41;5010962;28;8843;-67
2023/08/28 08:52:36;;;;;;;;;0.00;0.00;;;;;16.95;69.02;101219.56;5011193;28;9608;-67
2023/08/28 08:55:12;;;;;;;;;0.00;0.00;;;;;17.02;68.43;101220.31;5011368;28;8831;-67
2023/08/28 08:57:42;;;;;;;;;0.00;0.00;;;;;17.07;68.15;101220.44;5009822;28;8819;-67
2023/08/28 09:00:17;;;;;;;;;0.00;0.00;;;;;17.13;68.35;101224.97;5009819;28;8835;-67
2023/08/28 09:02:47;;;;;;;;;1.50;1.00;;;;;17.21;68.11;101227.38;5010969;28;8835;-67
2023/08/28 09:05:15;;;;;;;;;1.00;1.00;;;;;17.28;67.86;101230.00;5010864;28;8854;-69
2023/08/28 09:07:44;;;;;;;;;0.25;0.25;;;;;17.30;67.22;101223.31;5010946;28;8846;-68
2023/08/28 09:10:12;;;;;;;;;1.00;1.00;;;;;17.36;66.81;101228.88;5010487;28;8866;-68
2023/08/28 09:12:39;;;;;;;;;0.75;0.75;;;;;17.45;67.36;101224.75;5010931;28;8857;-67
2023/08/28 09:15:06;;;;;;;;;0.00;0.00;;;;;17.45;67.14;101227.47;5009456;28;8863;-68
2023/08/28 09:17:40;;;;;;;;;0.00;0.00;;;;;17.43;67.24;101216.00;5010786;28;8827;-68
2023/08/28 09:20:13;;;;;;;;;0.00;0.00;;;;;17.35;66.99;101213.63;5010614;28;8849;-68
2023/08/28 09:22:46;;;;;;;;;0.00;0.00;;;;;17.30;67.03;101211.59;5010665;28;8831;-67
2023/08/28 09:25:28;;;;;;;;;0.00;0.00;;;;;17.28;66.66;101214.53;5010267;28;8842;-67
2023/08/28 09:27:56;;;;;;;;;0.00;0.00;;;;;17.25;67.00;101217.69;5009762;28;8857;-67
2023/08/28 09:30:27;;;;;;;;;0.75;0.00;;;;;17.22;67.33;101223.63;5010326;28;8950;-67
2023/08/28 09:32:54;;;;;;;;;0.00;0.00;;;;;17.20;67.44;101220.28;5010557;28;8819;-66
2023/08/28 09:35:21;;;;;;;;;0.00;0.00;;;;;17.17;67.94;101220.72;5010510;28;8851;-68
2023/08/28 09:37:58;;;;;;;;;0.00;0.00;;;;;17.15;67.99;101217.41;5025718;28;8819;-68
2023/08/28 09:40:30;;;;;;;;;1.00;1.00;;;;;17.15;68.30;101220.13;5010067;28;8853;-67
2023/08/28 09:43:00;;;;;;;;;2.00;0.50;;;;;17.16;68.66;101234.56;5025563;28;8932;-68
2023/08/28 09:45:32;;;;;;;;;0.75;0.75;;;;;17.20;68.90;101224.88;5010852;28;8838;-67
2023/08/28 09:48:02;;;;;;;;;0.00;0.00;;;;;17.20;69.26;101225.72;5025558;28;8835;-67
2023/08/28 09:50:31;;;;;;;;;0.00;0.00;;;;;17.22;69.44;101229.06;5010088;28;8830;-68
2023/08/28 09:53:08;;;;;;;;;0.00;0.00;;;;;17.24;69.50;101228.81;5010224;28;8965;-67
2023/08/28 09:55:45;;;;;;;;;1.00;1.00;;;;;17.31;70.26;101226.84;5010218;28;8900;-68
2023/08/28 09:58:11;;;;;;;;;1.00;1.00;;;;;17.36;69.70;101232.41;5009067;28;8862;-68
2023/08/28 10:00:42;;;;;;;;;0.00;0.00;;;;;17.43;69.59;101232.34;5009990;28;8827;-68
2023/08/28 10:03:11;;;;;;;;;0.00;0.00;;;;;17.52;69.08;101229.06;5010158;28;8913;-67
2023/08/28 10:05:40;;;;;;;;;1.00;1.00;;;;;17.59;69.01;101233.59;5010091;28;8853;-68
2023/08/28 10:08:09;;;;;;;;;0.00;0.00;;;;;17.67;68.21;101223.19;5010145;28;8842;-67
2023/08/28 10:10:37;;;;;;;;;0.00;0.00;;;;;17.67;68.21;101223.19;5010158;28;9578;-67
2023/08/28 10:13:05;;;;;;;;;0.00;0.00;;;;;17.68;68.18;101227.56;5010104;28;8843;-68
2023/08/28 10:15:37;;;;;;;;;1.00;1.00;;;;;17.71;67.80;101234.47;5010448;28;8909;-67
2023/08/28 10:18:09;;;;;;;;;0.00;0.00;;;;;17.82;67.30;101221.97;5010660;28;9603;-68
2023/08/28 10:20:36;;;;;;;;;0.00;0.00;;;;;17.92;67.46;101222.22;5010040;28;8855;-69
2023/08/28 10:23:04;;;;;;;;;0.00;0.00;;;;;17.94;67.20;101225.53;5008978;28;8831;-68
2023/08/28 10:25:33;;;;;;;;;0.25;0.25;;;;;17.93;66.82;101223.88;5010431;28;8847;-69
2023/08/28 10:28:00;;;;;;;;;0.00;0.00;;;;;17.91;66.42;101231.47;5010064;28;8893;-66
2023/08/28 10:30:27;;;;;;;;;0.00;0.00;;;;;17.94;66.22;101225.53;5009814;28;8827;-67
2023/08/28 10:32:55;;;;;;;;;0.75;0.00;;;;;17.99;66.05;101212.91;5008696;28;8842;-67
2023/08/28 10:35:22;;;;;;;;;0.00;0.00;;;;;18.12;65.50;101214.56;5010019;28;8858;-68
2023/08/28 10:37:50;;;;;;;;;0.00;0.00;;;;;18.20;64.97;101211.50;5010583;28;8843;-67
2023/08/28 10:40:18;;;;;;;;;0.50;0.50;;;;;18.05;64.47;101219.28;5028565;28;8850;-66
2023/08/28 10:42:46;;;;;;;;;0.00;0.00;;;;;18.04;64.65;101229.34;5041244;23;8878;-67
2023/08/28 10:45:13;;;;;;;;;0.00;0.00;;;;;18.01;65.17;101226.28;5013552;28;8873;-66
2023/08/28 10:47:46;;;;;;;;;0.00;0.00;;;;;17.96;66.01;101239.78;5013635;28;8830;-67
2023/08/28 10:50:13;;;;;;;;;0.00;0.00;;;;;17.93;66.41;101229.34;5012457;28;8839;-67
2023/08/28 10:52:40;;;;;;;;;0.75;0.00;;;;;17.92;66.46;101238.56;5024599;28;8871;-67
2023/08/28 10:55:09;;;;;;;;;0.00;0.00;;;;;17.86;66.82;101239.50;5033289;28;8902;-67
2023/08/28 10:57:40;;;;;;;;;0.00;0.00;;;;;17.85;66.84;101246.00;5033149;28;8990;-66
2023/08/28 11:00:14;;;;;;;;;2.00;0.00;;;;;17.82;67.40;101244.56;5031595;28;8929;-67
2023/08/28 11:03:10;;;;;;;;;0.00;0.00;;;;;17.84;67.13;101236.19;5033229;28;8858;-67
2023/08/28 11:05:39;;;;;;;;;0.00;0.00;;;;;17.90;67.40;101230.63;5033064;28;8852;-67
2023/08/28 11:08:07;;;;;;;;;0.50;0.50;;;;;18.00;67.31;101246.41;5031791;28;9566;-66
2023/08/28 11:10:35;;;;;;;;;0.00;0.00;;;;;18.13;66.64;101239.91;5032907;28;8833;-67
2023/08/28 11:13:05;;;;;;;;;0.00;0.00;;;;;18.22;66.24;101241.22;5033002;28;8922;-67
2023/08/28 11:15:40;;;;;;;;;0.00;0.00;;;;;18.25;65.80;101232.59;5033137;28;8840;-67
2023/08/28 11:18:29;;;;;;;;;0.00;0.00;;;;;18.36;64.40;101233.66;5031710;28;8849;-67
2023/08/28 11:20:57;;;;;;;;;0.00;0.00;;;;;18.34;64.04;101241.22;5032731;28;8833;-66
2023/08/28 11:23:36;;;;;;;;;0.00;0.00;;;;;18.33;63.39;101242.31;5032730;28;8840;-68
2023/08/28 11:26:07;;;;;;;;;1.00;0.00;;;;;18.33;63.45;101239.59;5015084;28;8859;-66
2023/08/28 11:28:45;;;;;;;;;0.00;0.00;;;;;18.39;62.74;101238.63;5031700;28;8844;-66
2023/08/28 11:31:12;;;;;;;;;0.00;0.00;;;;;18.44;62.72;101236.88;5032534;28;8844;-67
2023/08/28 11:33:41;;;;;;;;;1.00;0.00;;;;;18.52;61.13;101243.88;5032472;28;8832;-67
2023/08/28 11:36:10;;;;;;;;;0.00;0.00;;;;;18.63;60.44;101240.28;5032481;28;8847;-68
2023/08/28 11:38:38;;;;;;;;;0.00;0.00;;;;;18.80;60.33;101247.75;5032395;28;8848;-67